createdAt,value
2022-08-07T00:02:39.724Z,15.48
2022-08-07T00:05:05.706Z,15.46
2022-08-07T00:07:40.311Z,15.43
2022-08-07T00:10:29.641Z,15.40
2022-08-07T00:13:23.443Z,15.36
2022-08-07T00:15:54.909Z,15.34
2022-08-07T00:18:25.279Z,15.31
2022-08-07T00:20:56.822Z,15.29
2022-08-07T00:23:28.402Z,15.26
2022-08-07T00:26:06.820Z,15.24
2022-08-07T00:28:45.987Z,15.21
2022-08-07T00:31:25.954Z,15.18
2022-08-07T00:34:08.839Z,15.16
2022-08-07T00:36:38.542Z,15.13
2022-08-07T00:39:16.687Z,15.11
2022-08-07T00:42:04.981Z,15.07
2022-08-07T00:44:34.773Z,15.05
2022-08-07T00:47:03.465Z,15.01
2022-08-07T00:50:19.309Z,14.99
2022-08-07T00:52:23.568Z,14.95
2022-08-07T00:54:54.783Z,14.93
2022-08-07T00:57:25.258Z,14.91
2022-08-07T00:59:55.259Z,14.87
2022-08-07T01:02:28.838Z,14.84
2022-08-07T01:04:58.665Z,14.82
2022-08-07T01:07:29.829Z,14.79
2022-08-07T01:10:06.578Z,14.76
2022-08-07T01:12:44.775Z,14.72
2022-08-07T01:15:35.725Z,14.70
2022-08-07T01:18:16.848Z,14.67
2022-08-07T01:20:57.293Z,14.64
2022-08-07T01:23:37.979Z,14.62
2022-08-07T01:26:12.128Z,14.58
2022-08-07T01:28:45.726Z,14.57
2022-08-07T01:31:17.895Z,14.53
2022-08-07T01:33:55.211Z,14.51
2022-08-07T01:36:34.039Z,14.47
2022-08-07T01:39:12.374Z,14.45
2022-08-07T01:42:07.261Z,14.42
2022-08-07T01:44:37.225Z,14.40
2022-08-07T01:47:14.498Z,14.39
2022-08-07T01:49:55.014Z,14.36
2022-08-07T01:52:29.833Z,14.33
2022-08-07T01:55:01.965Z,14.32
2022-08-07T01:58:01.340Z,14.31
2022-08-07T02:00:32.043Z,14.29
2022-08-07T02:03:18.471Z,14.27
2022-08-07T02:05:59.798Z,14.24
2022-08-07T02:08:31.525Z,14.22
2022-08-07T02:11:03.719Z,14.20
2022-08-07T02:13:56.921Z,14.19
2022-08-07T02:16:32.938Z,14.17
2022-08-07T02:19:05.606Z,14.16
2022-08-07T02:21:58.802Z,14.15
2022-08-07T02:24:29.930Z,14.14
2022-08-07T02:27:02.946Z,14.13
2022-08-07T02:29:36.794Z,14.11
2022-08-07T02:32:13.545Z,14.11
2022-08-07T02:34:51.115Z,14.09
2022-08-07T02:37:24.431Z,14.07
2022-08-07T02:40:02.486Z,14.06
2022-08-07T02:42:50.579Z,14.03
2022-08-07T02:45:59.325Z,14.02
2022-08-07T02:48:15.637Z,14.01
2022-08-07T02:50:49.315Z,13.99
2022-08-07T02:53:23.709Z,13.99
2022-08-07T02:56:03.014Z,13.97
2022-08-07T02:58:39.677Z,13.95
2022-08-07T03:01:18.694Z,13.93
2022-08-07T03:03:50.475Z,13.91
2022-08-07T03:06:32.938Z,13.90
2022-08-07T03:09:05.365Z,13.88
2022-08-07T03:11:38.511Z,13.86
2022-08-07T03:14:10.849Z,13.84
2022-08-07T03:16:40.983Z,13.82
2022-08-07T03:19:11.372Z,13.81
2022-08-07T03:21:50.316Z,13.80
2022-08-07T03:24:27.442Z,13.78
2022-08-07T03:27:01.909Z,13.78
2022-08-07T03:29:51.185Z,13.76
2022-08-07T03:32:25.805Z,13.77
2022-08-07T03:35:17.762Z,13.78
2022-08-07T03:37:53.943Z,13.77
2022-08-07T03:40:31.098Z,13.79
2022-08-07T03:43:13.539Z,13.79
2022-08-07T03:45:48.463Z,13.79
2022-08-07T03:48:19.859Z,13.78
2022-08-07T03:50:55.978Z,13.78
2022-08-07T03:53:30.270Z,13.76
2022-08-07T03:56:32.552Z,13.73
2022-08-07T03:59:13.113Z,13.74
2022-08-07T04:01:47.453Z,13.71
2022-08-07T04:04:21.304Z,13.69
2022-08-07T04:06:54.268Z,13.67
2022-08-07T04:09:29.431Z,13.67
2022-08-07T04:12:27.000Z,13.64
2022-08-07T04:14:59.494Z,13.63
2022-08-07T04:18:57.970Z,13.61
2022-08-07T04:20:22.289Z,13.58
2022-08-07T04:23:01.571Z,13.58
2022-08-07T04:25:39.518Z,13.55
2022-08-07T04:28:13.384Z,13.54
2022-08-07T04:30:55.447Z,13.52
2022-08-07T04:33:32.103Z,13.52
2022-08-07T04:36:06.427Z,13.50
2022-08-07T04:38:35.886Z,13.49
2022-08-07T04:41:05.059Z,13.46
2022-08-07T04:44:12.056Z,13.46
2022-08-07T04:47:05.022Z,13.44
2022-08-07T04:49:58.173Z,13.43
2022-08-07T04:52:46.706Z,13.41
2022-08-07T04:58:13.692Z,13.40
2022-08-07T05:01:43.755Z,13.38
2022-08-07T05:04:17.796Z,13.37
2022-08-07T05:07:19.546Z,13.37
2022-08-07T05:10:00.727Z,13.36
2022-08-07T05:12:46.101Z,13.35
2022-08-07T05:15:24.108Z,13.35
2022-08-07T05:18:08.729Z,13.37
2022-08-07T05:20:42.723Z,13.38
2022-08-07T05:23:17.499Z,13.39
2022-08-07T05:26:11.218Z,13.41
2022-08-07T05:28:40.832Z,13.40
2022-08-07T05:31:21.119Z,13.43
2022-08-07T05:34:04.585Z,13.45
2022-08-07T05:36:39.145Z,13.47
2022-08-07T05:40:16.759Z,13.49
2022-08-07T05:42:12.461Z,13.51
2022-08-07T05:44:46.755Z,13.54
2022-08-07T05:47:38.344Z,13.58
2022-08-07T05:50:22.223Z,13.62
2022-08-07T05:52:50.885Z,13.65
2022-08-07T05:55:23.813Z,13.69
2022-08-07T05:58:13.295Z,13.73
2022-08-07T06:00:46.312Z,13.78
2022-08-07T06:03:21.287Z,13.84
2022-08-07T06:05:56.504Z,13.89
2022-08-07T06:08:30.946Z,13.95
2022-08-07T06:11:03.767Z,14.00
2022-08-07T06:14:12.539Z,14.06
2022-08-07T06:16:24.439Z,14.15
2022-08-07T06:18:59.865Z,14.24
2022-08-07T06:22:16.401Z,14.34
2022-08-07T06:24:45.475Z,14.45
2022-08-07T06:27:07.832Z,14.58
2022-08-07T06:29:38.815Z,14.68
2022-08-07T06:32:08.470Z,14.79
2022-08-07T06:34:36.950Z,14.91
2022-08-07T06:37:09.512Z,15.00
2022-08-07T06:40:13.206Z,15.12
2022-08-07T06:42:37.232Z,15.24
2022-08-07T06:45:25.946Z,15.36
2022-08-07T06:47:59.803Z,15.49
2022-08-07T06:50:43.222Z,15.59
2022-08-07T06:53:49.213Z,15.68
2022-08-07T06:56:14.906Z,15.77
2022-08-07T07:00:13.791Z,15.85
2022-08-07T07:01:48.812Z,15.95
2022-08-07T07:04:32.424Z,16.03
2022-08-07T07:07:10.789Z,16.15
2022-08-07T07:09:49.120Z,16.26
2022-08-07T07:12:31.298Z,16.34
2022-08-07T07:15:23.585Z,16.44
2022-08-07T07:18:01.838Z,16.52
2022-08-07T07:20:37.825Z,16.61
2022-08-07T07:24:06.491Z,16.72
2022-08-07T07:26:34.046Z,16.83
2022-08-07T07:29:56.079Z,16.94
2022-08-07T07:31:51.544Z,17.08
2022-08-07T07:34:30.551Z,17.17
2022-08-07T07:37:14.289Z,17.26
2022-08-07T07:39:55.352Z,17.34
2022-08-07T07:42:32.862Z,17.41
2022-08-07T07:45:03.015Z,17.49
2022-08-07T07:47:42.852Z,17.58
2022-08-07T07:50:33.517Z,17.68
2022-08-07T07:53:13.498Z,17.80
2022-08-07T07:55:57.586Z,17.91
2022-08-07T07:58:29.748Z,17.99
2022-08-07T08:00:59.687Z,18.07
2022-08-07T08:04:09.620Z,18.13
2022-08-07T08:06:20.415Z,18.20
2022-08-07T08:08:51.463Z,18.25
2022-08-07T08:11:59.878Z,18.33
2022-08-07T08:14:10.770Z,18.42
2022-08-07T08:16:41.507Z,18.49
2022-08-07T08:20:18.691Z,18.57
2022-08-07T08:22:32.974Z,18.65
2022-08-07T08:25:26.943Z,18.72
2022-08-07T08:28:24.109Z,18.82
2022-08-07T08:31:14.692Z,18.89
2022-08-07T08:33:49.447Z,18.95
2022-08-07T08:36:29.922Z,19.02
2022-08-07T08:39:02.895Z,19.07
2022-08-07T08:41:58.244Z,19.15
2022-08-07T08:44:44.413Z,19.23
2022-08-07T08:47:25.019Z,19.31
2022-08-07T08:50:04.656Z,19.39
2022-08-07T08:52:40.934Z,19.48
2022-08-07T08:55:54.868Z,19.57
2022-08-07T08:58:28.647Z,19.65
2022-08-07T09:01:14.590Z,19.74
2022-08-07T09:03:55.309Z,19.81
2022-08-07T09:06:36.718Z,19.88
2022-08-07T09:09:21.158Z,19.97
2022-08-07T09:12:20.027Z,20.05
2022-08-07T09:14:59.759Z,20.12
2022-08-07T09:17:59.368Z,20.20
2022-08-07T09:20:35.360Z,20.26
2022-08-07T09:24:33.475Z,20.31
2022-08-07T09:26:17.206Z,20.37
2022-08-07T09:30:04.214Z,20.44
2022-08-07T09:31:51.759Z,20.51
2022-08-07T09:34:27.248Z,20.56
2022-08-07T09:37:03.076Z,20.62
2022-08-07T09:39:54.115Z,20.70
2022-08-07T09:42:41.866Z,20.75
2022-08-07T09:46:28.604Z,20.80
2022-08-07T09:48:19.547Z,20.86
2022-08-07T09:52:09.206Z,20.93
2022-08-07T09:54:02.882Z,20.99
2022-08-07T09:56:59.931Z,21.04
2022-08-07T10:00:00.748Z,21.08
2022-08-07T10:04:03.322Z,21.15
2022-08-07T10:06:26.824Z,21.25
2022-08-07T10:09:34.136Z,21.31
2022-08-07T10:12:26.506Z,21.36
2022-08-07T10:15:19.673Z,21.40
2022-08-07T10:18:03.431Z,21.48
2022-08-07T10:20:44.308Z,21.58
2022-08-07T10:24:05.347Z,21.68
2022-08-07T10:26:45.000Z,21.72
2022-08-07T10:29:51.911Z,21.78
2022-08-07T10:32:51.080Z,21.84
2022-08-07T10:35:56.280Z,21.88
2022-08-07T10:38:48.659Z,21.92
2022-08-07T10:41:46.461Z,21.96
2022-08-07T10:44:28.738Z,22.02
2022-08-07T10:47:16.814Z,22.06
2022-08-07T10:49:56.345Z,22.15
2022-08-07T10:52:34.082Z,22.25
2022-08-07T10:55:27.032Z,22.35
2022-08-07T10:58:10.163Z,22.40
2022-08-07T11:00:50.534Z,22.47
2022-08-07T11:03:37.779Z,22.54
2022-08-07T11:06:22.942Z,22.60
2022-08-07T11:09:03.569Z,22.70
2022-08-07T11:11:38.089Z,22.74
2022-08-07T11:14:44.974Z,22.79
2022-08-07T11:17:09.026Z,22.82
2022-08-07T11:19:46.719Z,22.93
2022-08-07T11:22:33.256Z,23.04
2022-08-07T11:25:17.418Z,23.17
2022-08-07T11:28:01.137Z,23.23
2022-08-07T11:30:41.687Z,23.33
2022-08-07T11:33:53.831Z,23.45
2022-08-07T11:36:25.285Z,23.55
2022-08-07T11:39:10.502Z,23.64
2022-08-07T11:42:02.192Z,23.75
2022-08-07T11:44:52.296Z,23.83
2022-08-07T11:47:56.614Z,23.95
2022-08-07T11:50:44.521Z,24.05
2022-08-07T11:53:43.392Z,24.11
2022-08-07T11:56:46.361Z,24.14
2022-08-07T12:00:10.444Z,24.22
2022-08-07T12:02:57.255Z,24.38
2022-08-07T12:05:41.630Z,24.50
2022-08-07T12:08:25.886Z,24.56
2022-08-07T12:11:21.263Z,24.68
2022-08-07T12:13:56.457Z,24.79
2022-08-07T12:16:30.525Z,24.85
2022-08-07T12:19:14.618Z,24.89
2022-08-07T12:22:37.259Z,24.96
2022-08-07T12:26:00.901Z,25.08
2022-08-07T12:28:08.567Z,25.23
2022-08-07T12:30:46.486Z,25.33
2022-08-07T12:33:28.350Z,25.42
2022-08-07T12:36:02.285Z,25.49
2022-08-07T12:38:42.639Z,25.52
2022-08-07T12:41:13.877Z,25.52
2022-08-07T12:44:03.586Z,25.49
2022-08-07T12:46:58.537Z,25.55
2022-08-07T12:49:48.640Z,25.66
2022-08-07T12:52:28.761Z,25.75
2022-08-07T12:55:16.489Z,25.80
2022-08-07T12:58:00.355Z,25.78
2022-08-07T13:00:49.680Z,25.80
2022-08-07T13:04:02.278Z,25.85
2022-08-07T13:07:00.604Z,25.92
2022-08-07T13:10:38.978Z,26.08
2022-08-07T13:13:46.734Z,26.29
2022-08-07T13:16:17.153Z,26.52
2022-08-07T13:18:58.014Z,26.70
2022-08-07T13:21:37.687Z,26.86
2022-08-07T13:24:29.278Z,27.03
2022-08-07T13:27:05.624Z,27.16
2022-08-07T13:29:47.752Z,27.25
2022-08-07T13:32:31.865Z,27.31
2022-08-07T13:35:09.197Z,27.45
2022-08-07T13:37:59.092Z,27.60
2022-08-07T13:40:41.174Z,27.74
2022-08-07T13:43:15.067Z,27.86
2022-08-07T13:46:12.455Z,27.98
2022-08-07T13:48:39.275Z,28.16
2022-08-07T13:51:27.371Z,28.31
2022-08-07T13:54:08.099Z,28.48
2022-08-07T13:56:41.281Z,28.58
2022-08-07T13:59:25.480Z,28.66
2022-08-07T14:02:05.320Z,28.74
2022-08-07T14:04:48.941Z,28.86
2022-08-07T14:07:22.908Z,28.95
2022-08-07T14:10:02.928Z,29.11
2022-08-07T14:12:54.827Z,29.27
2022-08-07T14:15:32.107Z,29.33
2022-08-07T14:18:27.135Z,29.40
2022-08-07T14:21:08.175Z,29.53
2022-08-07T14:24:00.826Z,29.69
2022-08-07T14:26:39.024Z,29.79
2022-08-07T14:30:06.394Z,29.88
2022-08-07T14:32:04.318Z,29.53
2022-08-07T14:34:34.878Z,29.59
2022-08-07T14:37:17.798Z,29.73
2022-08-07T14:40:17.666Z,29.78
2022-08-07T14:43:55.621Z,29.76
2022-08-07T14:45:48.691Z,29.95
2022-08-07T14:48:28.319Z,30.23
2022-08-07T14:51:04.760Z,30.46
2022-08-07T14:54:09.847Z,30.67
2022-08-07T14:56:30.809Z,30.79
2022-08-07T14:59:04.486Z,30.93
2022-08-07T15:01:50.946Z,31.08
2022-08-07T15:04:25.203Z,31.13
2022-08-07T15:06:54.903Z,31.21
2022-08-07T15:10:00.765Z,31.16
2022-08-07T15:12:25.828Z,31.17
2022-08-07T15:15:07.850Z,31.27
2022-08-07T15:20:54.596Z,31.28
2022-08-07T15:25:14.124Z,31.36
2022-08-07T15:26:32.353Z,31.53
2022-08-07T15:30:09.386Z,31.64
2022-08-07T15:31:57.637Z,31.70
2022-08-07T15:34:36.085Z,31.79
2022-08-07T15:37:08.106Z,31.95
2022-08-07T15:39:56.381Z,32.09
2022-08-07T15:42:51.766Z,32.17
2022-08-07T15:45:58.322Z,32.21
2022-08-07T15:48:32.512Z,32.28
2022-08-07T15:51:10.052Z,32.36
2022-08-07T15:53:52.839Z,32.40
2022-08-07T15:56:33.368Z,32.44
2022-08-07T15:59:05.600Z,32.44
2022-08-07T16:01:41.349Z,32.42
2022-08-07T16:04:15.334Z,32.42
2022-08-07T16:06:50.312Z,32.44
2022-08-07T16:09:41.917Z,32.47
2022-08-07T16:12:25.159Z,32.38
2022-08-07T16:15:55.191Z,32.34
2022-08-07T16:18:50.380Z,32.30
2022-08-07T16:22:01.288Z,32.26
2022-08-07T16:24:03.841Z,32.14
2022-08-07T16:26:59.320Z,32.01
2022-08-07T16:30:11.186Z,31.83
2022-08-07T16:32:46.465Z,31.66
2022-08-07T16:35:51.720Z,31.50
2022-08-07T16:39:00.614Z,31.27
2022-08-07T16:41:54.411Z,31.11
2022-08-07T16:45:15.462Z,31.03
2022-08-07T16:47:56.399Z,31.01
2022-08-07T16:50:48.257Z,31.00
2022-08-07T16:54:02.671Z,30.93
2022-08-07T16:56:37.624Z,30.87
2022-08-07T16:59:17.284Z,30.77
2022-08-07T17:02:00.163Z,30.61
2022-08-07T17:04:58.720Z,30.43
2022-08-07T17:07:55.729Z,30.27
2022-08-07T17:10:34.058Z,30.15
2022-08-07T17:14:19.266Z,30.02
2022-08-07T17:16:45.446Z,29.85
2022-08-07T17:20:00.983Z,29.71
2022-08-07T17:22:36.520Z,29.56
2022-08-07T17:25:15.713Z,29.34
2022-08-07T17:27:59.511Z,29.15
2022-08-07T17:30:57.743Z,28.97
2022-08-07T17:34:18.213Z,28.77
2022-08-07T17:36:25.844Z,28.59
2022-08-07T17:39:02.373Z,28.41
2022-08-07T17:42:03.635Z,28.25
2022-08-07T17:44:45.595Z,28.06
2022-08-07T17:47:41.863Z,27.86
2022-08-07T17:50:19.813Z,27.69
2022-08-07T17:52:55.252Z,27.50
2022-08-07T17:56:00.313Z,27.32
2022-08-07T17:58:31.410Z,27.11
2022-08-07T18:01:21.028Z,26.95
2022-08-07T18:04:08.066Z,26.76
2022-08-07T18:06:57.916Z,26.61
2022-08-07T18:09:48.325Z,26.50
2022-08-07T18:12:32.512Z,26.37
2022-08-07T18:15:09.710Z,26.25
2022-08-07T18:18:44.762Z,26.14
2022-08-07T18:21:07.069Z,26.00
2022-08-07T18:23:50.690Z,25.88
2022-08-07T18:26:42.807Z,25.77
2022-08-07T18:30:05.471Z,25.65
2022-08-07T18:32:25.982Z,25.53
2022-08-07T18:35:12.820Z,25.44
2022-08-07T18:38:55.627Z,25.35
2022-08-07T18:41:09.346Z,25.24
2022-08-07T18:43:59.168Z,25.12
2022-08-07T18:46:43.154Z,25.03
2022-08-07T18:50:32.865Z,24.94
2022-08-07T18:52:51.683Z,24.83
2022-08-07T18:55:41.214Z,24.75
2022-08-07T18:58:24.296Z,24.69
2022-08-07T19:01:06.174Z,24.62
2022-08-07T19:03:43.882Z,24.52
2022-08-07T19:06:22.177Z,24.44
2022-08-07T19:09:09.589Z,24.36
2022-08-07T19:12:17.918Z,24.26
2022-08-07T19:16:02.909Z,24.17
2022-08-07T19:18:09.053Z,24.10
2022-08-07T19:21:08.282Z,24.02
2022-08-07T19:23:58.767Z,23.94
2022-08-07T19:27:09.296Z,23.85
2022-08-07T19:31:05.545Z,23.79
2022-08-07T19:32:26.470Z,23.72
2022-08-07T19:35:02.947Z,23.64
2022-08-07T19:37:55.536Z,23.59
2022-08-07T19:40:31.407Z,23.51
2022-08-07T19:43:09.611Z,23.45
2022-08-07T19:46:07.922Z,23.39
2022-08-07T19:48:42.260Z,23.30
2022-08-07T19:51:20.014Z,23.23
2022-08-07T19:54:34.267Z,23.15
2022-08-07T19:57:52.207Z,23.07
2022-08-07T19:59:41.444Z,22.99
2022-08-07T20:02:19.775Z,22.91
2022-08-07T20:04:56.076Z,22.86
2022-08-07T20:07:46.606Z,22.78
2022-08-07T20:10:37.371Z,22.71
2022-08-07T20:13:23.652Z,22.61
2022-08-07T20:15:55.316Z,22.54
2022-08-07T20:18:33.632Z,22.48
2022-08-07T20:21:20.888Z,22.42
2022-08-07T20:23:54.838Z,22.36
2022-08-07T20:26:38.647Z,22.28
2022-08-07T20:29:47.693Z,22.19
2022-08-07T20:32:11.451Z,22.11
2022-08-07T20:34:52.696Z,22.04
2022-08-07T20:37:26.170Z,21.97
2022-08-07T20:40:03.600Z,21.89
2022-08-07T20:42:35.300Z,21.81
2022-08-07T20:45:33.538Z,21.74
2022-08-07T20:47:58.436Z,21.66
2022-08-07T20:50:30.574Z,21.58
2022-08-07T20:53:00.749Z,21.51
2022-08-07T20:55:32.207Z,21.44
2022-08-07T20:58:11.758Z,21.38
2022-08-07T21:00:46.537Z,21.29
2022-08-07T21:03:16.603Z,21.23
2022-08-07T21:05:56.322Z,21.17
2022-08-07T21:08:37.851Z,21.09
2022-08-07T21:11:14.238Z,21.02
2022-08-07T21:14:16.325Z,20.96
2022-08-07T21:16:55.895Z,20.88
2022-08-07T21:19:32.407Z,20.83
2022-08-07T21:22:19.310Z,20.75
2022-08-07T21:25:12.343Z,20.67
2022-08-07T21:28:02.579Z,20.58
2022-08-07T21:30:41.887Z,20.52
2022-08-07T21:33:17.683Z,20.43
2022-08-07T21:36:05.955Z,20.38
2022-08-07T21:38:49.714Z,20.30
2022-08-07T21:41:38.365Z,20.23
2022-08-07T21:44:32.018Z,20.13
2022-08-07T21:47:12.335Z,20.04
2022-08-07T21:50:02.693Z,19.96
2022-08-07T21:52:44.850Z,19.91
2022-08-07T21:55:27.925Z,19.83
2022-08-07T21:58:30.280Z,19.77
2022-08-07T22:01:05.201Z,19.71
2022-08-07T22:03:46.943Z,19.66
2022-08-07T22:06:29.959Z,19.60
2022-08-07T22:09:07.150Z,19.55
2022-08-07T22:12:05.510Z,19.51
2022-08-07T22:14:59.497Z,19.45
2022-08-07T22:17:38.890Z,19.40
2022-08-07T22:20:23.330Z,19.36
2022-08-07T22:22:57.547Z,19.30
2022-08-07T22:25:36.779Z,19.25
2022-08-07T22:28:31.091Z,19.21
2022-08-07T22:31:07.531Z,19.14
2022-08-07T22:33:56.747Z,19.09
2022-08-07T22:36:38.543Z,19.03
2022-08-07T22:39:18.939Z,18.99
2022-08-07T22:42:03.599Z,18.93
2022-08-07T22:44:59.142Z,18.87
2022-08-07T22:47:56.518Z,18.83
2022-08-07T22:50:40.459Z,18.77
2022-08-07T22:54:08.837Z,18.71
2022-08-07T22:56:17.091Z,18.66
2022-08-07T22:59:11.067Z,18.60
2022-08-07T23:01:59.035Z,18.56
2022-08-07T23:04:57.647Z,18.50
2022-08-07T23:08:07.326Z,18.44
2022-08-07T23:11:13.236Z,18.39
2022-08-07T23:14:14.925Z,18.34
2022-08-07T23:17:03.762Z,18.29
2022-08-07T23:20:05.985Z,18.25
2022-08-07T23:22:52.257Z,18.21
2022-08-07T23:25:33.473Z,18.16
2022-08-07T23:28:21.156Z,18.13
2022-08-07T23:31:11.610Z,18.09
2022-08-07T23:34:36.005Z,18.06
2022-08-07T23:37:29.232Z,18.04
2022-08-07T23:40:09.269Z,18.03
2022-08-07T23:42:53.371Z,18.01
2022-08-07T23:46:01.416Z,18.00
2022-08-07T23:48:30.285Z,17.98
2022-08-07T23:51:03.765Z,17.97
2022-08-07T23:54:05.082Z,17.96
2022-08-07T23:56:53.539Z,17.95
